sensor_id;sensor_type;location;lat;lon;timestamp;pressure;altitude;pressure_sealevel;temperature;humidity
43125;BME280;49182;50.788;7.318;2023-05-06T00:01:03;100938.69;;;12.68;100.00
43125;BME280;49182;50.788;7.318;2023-05-06T00:03:30;100932.66;;;12.66;99.86
43125;BME280;49182;50.788;7.318;2023-05-06T00:05:56;100932.84;;;12.64;99.71
43125;BME280;49182;50.788;7.318;2023-05-06T00:08:23;100924.19;;;12.62;99.39
43125;BME280;49182;50.788;7.318;2023-05-06T00:10:49;100925.72;;;12.55;99.84
43125;BME280;49182;50.788;7.318;2023-05-06T00:13:16;100935.88;;;12.50;100.00
43125;BME280;49182;50.788;7.318;2023-05-06T00:15:44;100921.94;;;12.48;100.00
43125;BME280;49182;50.788;7.318;2023-05-06T00:18:10;100899.09;;;12.28;100.00
43125;BME280;49182;50.788;7.318;2023-05-06T00:20:37;100925.97;;;12.42;100.00
43125;BME280;49182;50.788;7.318;2023-05-06T00:23:03;100918.16;;;12.41;100.00
43125;BME280;49182;50.788;7.318;2023-05-06T00:25:30;100925.44;;;12.39;100.00
43125;BME280;49182;50.788;7.318;2023-05-06T00:27:56;100920.97;;;12.39;99.94
43125;BME280;49182;50.788;7.318;2023-05-06T00:30:23;100918.47;;;12.38;100.00
43125;BME280;49182;50.788;7.318;2023-05-06T00:32:51;100913.59;;;12.33;100.00
43125;BME280;49182;50.788;7.318;2023-05-06T00:35:18;100917.47;;;12.29;100.00
43125;BME280;49182;50.788;7.318;2023-05-06T00:37:52;100920.28;;;12.28;100.00
43125;BME280;49182;50.788;7.318;2023-05-06T00:40:21;100904.50;;;12.26;100.00
43125;BME280;49182;50.788;7.318;2023-05-06T00:42:48;100909.81;;;12.26;100.00
43125;BME280;49182;50.788;7.318;2023-05-06T00:45:14;100913.44;;;12.25;100.00
43125;BME280;49182;50.788;7.318;2023-05-06T00:47:41;100904.50;;;12.26;100.00
43125;BME280;49182;50.788;7.318;2023-05-06T00:50:09;100902.97;;;12.24;100.00
43125;BME280;49182;50.788;7.318;2023-05-06T00:52:36;100902.00;;;12.25;100.00
43125;BME280;49182;50.788;7.318;2023-05-06T00:55:03;100905.34;;;12.27;100.00
43125;BME280;49182;50.788;7.318;2023-05-06T00:57:30;100911.63;;;12.26;100.00
43125;BME280;49182;50.788;7.318;2023-05-06T00:59:56;100908.97;;;12.26;100.00
43125;BME280;49182;50.788;7.318;2023-05-06T01:02:23;100905.06;;;12.20;100.00
43125;BME280;49182;50.788;7.318;2023-05-06T01:05:01;100901.56;;;12.10;100.00
43125;BME280;49182;50.788;7.318;2023-05-06T01:07:36;100901.13;;;12.05;100.00
43125;BME280;49182;50.788;7.318;2023-05-06T01:10:11;100889.41;;;11.88;100.00
43125;BME280;49182;50.788;7.318;2023-05-06T01:12:44;100902.22;;;11.93;100.00
43125;BME280;49182;50.788;7.318;2023-05-06T01:15:14;100899.69;;;11.82;100.00
43125;BME280;49182;50.788;7.318;2023-05-06T01:17:44;100907.75;;;11.80;100.00
43125;BME280;49182;50.788;7.318;2023-05-06T01:20:11;100900.66;;;11.81;100.00
43125;BME280;49182;50.788;7.318;2023-05-06T01:22:39;100908.59;;;11.81;100.00
43125;BME280;49182;50.788;7.318;2023-05-06T01:25:17;100909.31;;;11.83;100.00
43125;BME280;49182;50.788;7.318;2023-05-06T01:27:43;100903.00;;;11.74;100.00
43125;BME280;49182;50.788;7.318;2023-05-06T01:30:11;100907.91;;;11.79;100.00
43125;BME280;49182;50.788;7.318;2023-05-06T01:32:45;100905.94;;;11.81;100.00
43125;BME280;49182;50.788;7.318;2023-05-06T01:35:28;100903.84;;;11.74;100.00
43125;BME280;49182;50.788;7.318;2023-05-06T01:38:05;100906.78;;;11.81;100.00
43125;BME280;49182;50.788;7.318;2023-05-06T01:40:35;100913.47;;;11.75;100.00
43125;BME280;49182;50.788;7.318;2023-05-06T01:43:04;100911.78;;;11.74;100.00
43125;BME280;49182;50.788;7.318;2023-05-06T01:45:33;100912.75;;;11.73;100.00
43125;BME280;49182;50.788;7.318;2023-05-06T01:48:00;100911.06;;;11.72;100.00
43125;BME280;49182;50.788;7.318;2023-05-06T01:50:28;100913.47;;;11.75;100.00
43125;BME280;49182;50.788;7.318;2023-05-06T01:52:56;100912.75;;;11.73;100.00
43125;BME280;49182;50.788;7.318;2023-05-06T01:55:23;100922.75;;;11.70;100.00
43125;BME280;49182;50.788;7.318;2023-05-06T01:57:51;100919.25;;;11.69;100.00
43125;BME280;49182;50.788;7.318;2023-05-06T02:00:18;100918.03;;;11.73;100.00
43125;BME280;49182;50.788;7.318;2023-05-06T02:02:44;100917.84;;;11.65;100.00
43125;BME280;49182;50.788;7.318;2023-05-06T02:05:12;100928.81;;;11.61;100.00
43125;BME280;49182;50.788;7.318;2023-05-06T02:07:43;100909.19;;;11.54;100.00
43125;BME280;49182;50.788;7.318;2023-05-06T02:10:10;100923.22;;;11.54;100.00
43125;BME280;49182;50.788;7.318;2023-05-06T02:12:40;100923.19;;;11.45;100.00
43125;BME280;49182;50.788;7.318;2023-05-06T02:15:09;100920.66;;;11.43;100.00
43125;BME280;49182;50.788;7.318;2023-05-06T02:17:38;100926.34;;;11.39;100.00
43125;BME280;49182;50.788;7.318;2023-05-06T02:20:05;100927.84;;;11.31;100.00
43125;BME280;49182;50.788;7.318;2023-05-06T02:22:32;100921.84;;;11.29;100.00
43125;BME280;49182;50.788;7.318;2023-05-06T02:24:59;100915.88;;;11.27;100.00
43125;BME280;49182;50.788;7.318;2023-05-06T02:27:25;100915.44;;;11.22;100.00
43125;BME280;49182;50.788;7.318;2023-05-06T02:29:54;100916.41;;;11.21;100.00
43125;BME280;49182;50.788;7.318;2023-05-06T02:32:22;100913.16;;;11.18;100.00
43125;BME280;49182;50.788;7.318;2023-05-06T02:34:49;100915.81;;;11.18;100.00
43125;BME280;49182;50.788;7.318;2023-05-06T02:37:15;100910.91;;;11.13;100.00
43125;BME280;49182;50.788;7.318;2023-05-06T02:39:42;100915.63;;;11.10;100.00
43125;BME280;49182;50.788;7.318;2023-05-06T02:42:09;100918.41;;;11.08;100.00
43125;BME280;49182;50.788;7.318;2023-05-06T02:44:35;100915.03;;;11.06;100.00
43125;BME280;49182;50.788;7.318;2023-05-06T02:47:02;100914.19;;;11.06;100.00
43125;BME280;49182;50.788;7.318;2023-05-06T02:49:30;100912.28;;;11.08;100.00
43125;BME280;49182;50.788;7.318;2023-05-06T02:51:57;100915.88;;;11.07;100.00
43125;BME280;49182;50.788;7.318;2023-05-06T02:54:23;100920.47;;;11.05;100.00
43125;BME280;49182;50.788;7.318;2023-05-06T02:56:50;100908.22;;;11.04;100.00
43125;BME280;49182;50.788;7.318;2023-05-06T02:59:17;100915.44;;;11.02;100.00
43125;BME280;49182;50.788;7.318;2023-05-06T03:01:43;100920.72;;;11.02;100.00
43125;BME280;49182;50.788;7.318;2023-05-06T03:04:10;100918.31;;;10.99;100.00
43125;BME280;49182;50.788;7.318;2023-05-06T03:06:38;100926.25;;;10.99;100.00
43125;BME280;49182;50.788;7.318;2023-05-06T03:09:05;100920.53;;;10.93;100.00
43125;BME280;49182;50.788;7.318;2023-05-06T03:11:32;100920.06;;;10.88;100.00
43125;BME280;49182;50.788;7.318;2023-05-06T03:14:02;100919.97;;;10.90;100.00
43125;BME280;49182;50.788;7.318;2023-05-06T03:16:29;100913.13;;;10.87;100.00
43125;BME280;49182;50.788;7.318;2023-05-06T03:18:58;100918.16;;;10.90;100.00
43125;BME280;49182;50.788;7.318;2023-05-06T03:21:25;100913.97;;;10.88;100.00
43125;BME280;49182;50.788;7.318;2023-05-06T03:23:54;100917.94;;;10.82;100.00
43125;BME280;49182;50.788;7.318;2023-05-06T03:26:23;100906.94;;;10.77;100.00
43125;BME280;49182;50.788;7.318;2023-05-06T03:28:50;100918.59;;;10.75;100.00
43125;BME280;49182;50.788;7.318;2023-05-06T03:31:19;100916.94;;;10.74;100.00
43125;BME280;49182;50.788;7.318;2023-05-06T03:33:46;100919.81;;;10.71;100.00
43125;BME280;49182;50.788;7.318;2023-05-06T03:36:13;100914.53;;;10.71;100.00
43125;BME280;49182;50.788;7.318;2023-05-06T03:38:42;100899.00;;;10.57;100.00
43125;BME280;49182;50.788;7.318;2023-05-06T03:41:11;100917.69;;;10.65;100.00
43125;BME280;49182;50.788;7.318;2023-05-06T03:43:38;100908.19;;;10.62;100.00
43125;BME280;49182;50.788;7.318;2023-05-06T03:46:06;100893.03;;;10.54;100.00
43125;BME280;49182;50.788;7.318;2023-05-06T03:48:34;100906.56;;;10.61;100.00
43125;BME280;49182;50.788;7.318;2023-05-06T03:51:02;100914.97;;;10.55;100.00
43125;BME280;49182;50.788;7.318;2023-05-06T03:53:29;100913.66;;;10.49;100.00
43125;BME280;49182;50.788;7.318;2023-05-06T03:55:56;100917.28;;;10.48;100.00
43125;BME280;49182;50.788;7.318;2023-05-06T03:58:24;100918.47;;;10.44;100.00
43125;BME280;49182;50.788;7.318;2023-05-06T04:00:51;100921.97;;;10.45;100.00
43125;BME280;49182;50.788;7.318;2023-05-06T04:03:17;100918.47;;;10.44;100.00
43125;BME280;49182;50.788;7.318;2023-05-06T04:05:48;100924.88;;;10.42;100.00
43125;BME280;49182;50.788;7.318;2023-05-06T04:08:17;100929.53;;;10.38;100.00
43125;BME280;49182;50.788;7.318;2023-05-06T04:10:44;100924.66;;;10.34;100.00
43125;BME280;49182;50.788;7.318;2023-05-06T04:13:17;100925.38;;;10.36;100.00
43125;BME280;49182;50.788;7.318;2023-05-06T04:15:47;100919.94;;;10.37;100.00
43125;BME280;49182;50.788;7.318;2023-05-06T04:18:18;100926.22;;;10.36;100.00
43125;BME280;49182;50.788;7.318;2023-05-06T04:20:53;100924.66;;;10.34;100.00
43125;BME280;49182;50.788;7.318;2023-05-06T04:23:20;100915.84;;;10.44;100.00
43125;BME280;49182;50.788;7.318;2023-05-06T04:25:47;100919.38;;;10.34;100.00
43125;BME280;49182;50.788;7.318;2023-05-06T04:28:15;100911.72;;;10.20;100.00
43125;BME280;49182;50.788;7.318;2023-05-06T04:30:46;100932.09;;;10.29;100.00
43125;BME280;49182;50.788;7.318;2023-05-06T04:33:13;100934.75;;;10.29;100.00
43125;BME280;49182;50.788;7.318;2023-05-06T04:35:49;100926.50;;;10.22;100.00
43125;BME280;49182;50.788;7.318;2023-05-06T04:38:16;100940.53;;;10.23;100.00
43125;BME280;49182;50.788;7.318;2023-05-06T04:40:43;100942.19;;;10.24;100.00
43125;BME280;49182;50.788;7.318;2023-05-06T04:43:09;100940.06;;;10.18;100.00
43125;BME280;49182;50.788;7.318;2023-05-06T04:45:36;100944.50;;;10.17;100.00
43125;BME280;49182;50.788;7.318;2023-05-06T04:48:05;100945.19;;;10.19;100.00
43125;BME280;49182;50.788;7.318;2023-05-06T04:50:31;100946.88;;;10.20;100.00
43125;BME280;49182;50.788;7.318;2023-05-06T04:52:58;100942.31;;;10.11;100.00
43125;BME280;49182;50.788;7.318;2023-05-06T04:55:25;100953.34;;;10.16;100.00
43125;BME280;49182;50.788;7.318;2023-05-06T04:57:52;100955.63;;;10.21;100.00
43125;BME280;49182;50.788;7.318;2023-05-06T05:00:19;100960.69;;;10.24;100.00
43125;BME280;49182;50.788;7.318;2023-05-06T05:02:46;100961.38;;;10.26;100.00
43125;BME280;49182;50.788;7.318;2023-05-06T05:05:16;100960.03;;;10.31;100.00
43125;BME280;49182;50.788;7.318;2023-05-06T05:07:46;100969.41;;;10.35;100.00
43125;BME280;49182;50.788;7.318;2023-05-06T05:10:13;100972.88;;;10.36;100.00
43125;BME280;49182;50.788;7.318;2023-05-06T05:12:40;100978.84;;;10.38;100.00
43125;BME280;49182;50.788;7.318;2023-05-06T05:15:07;100971.78;;;10.38;100.00
43125;BME280;49182;50.788;7.318;2023-05-06T05:17:36;100973.81;;;10.46;100.00
43125;BME280;49182;50.788;7.318;2023-05-06T05:20:05;100975.09;;;10.51;100.00
43125;BME280;49182;50.788;7.318;2023-05-06T05:22:34;100971.25;;;10.55;99.53
43125;BME280;49182;50.788;7.318;2023-05-06T05:25:00;100980.25;;;10.53;99.51
43125;BME280;49182;50.788;7.318;2023-05-06T05:27:27;100980.25;;;10.53;100.00
43125;BME280;49182;50.788;7.318;2023-05-06T05:29:55;100965.88;;;10.46;100.00
43125;BME280;49182;50.788;7.318;2023-05-06T05:32:22;100983.34;;;10.58;100.00
43125;BME280;49182;50.788;7.318;2023-05-06T05:34:49;100987.41;;;10.62;100.00
43125;BME280;49182;50.788;7.318;2023-05-06T05:37:16;100983.59;;;10.66;100.00
43125;BME280;49182;50.788;7.318;2023-05-06T05:39:45;100980.44;;;10.72;100.00
43125;BME280;49182;50.788;7.318;2023-05-06T05:42:13;100982.19;;;10.83;100.00
43125;BME280;49182;50.788;7.318;2023-05-06T05:44:42;100983.09;;;10.93;100.00
43125;BME280;49182;50.788;7.318;2023-05-06T05:47:09;100985.59;;;10.94;100.00
43125;BME280;49182;50.788;7.318;2023-05-06T05:49:36;100988.84;;;10.98;100.00
43125;BME280;49182;50.788;7.318;2023-05-06T05:52:03;100993.34;;;11.07;100.00
43125;BME280;49182;50.788;7.318;2023-05-06T05:54:30;100989.34;;;11.13;99.73
43125;BME280;49182;50.788;7.318;2023-05-06T05:56:59;100978.91;;;11.11;98.94
43125;BME280;49182;50.788;7.318;2023-05-06T05:59:27;100992.41;;;11.29;99.21
43125;BME280;49182;50.788;7.318;2023-05-06T06:01:57;100987.16;;;11.39;99.08
43125;BME280;49182;50.788;7.318;2023-05-06T06:04:24;100988.19;;;11.47;98.30
43125;BME280;49182;50.788;7.318;2023-05-06T06:06:51;100991.00;;;11.55;97.42
43125;BME280;49182;50.788;7.318;2023-05-06T06:09:18;100997.56;;;11.61;96.84
43125;BME280;49182;50.788;7.318;2023-05-06T06:11:46;100990.94;;;11.66;97.08
43125;BME280;49182;50.788;7.318;2023-05-06T06:14:15;100981.34;;;11.65;96.75
43125;BME280;49182;50.788;7.318;2023-05-06T06:16:43;100987.72;;;11.84;95.96
43125;BME280;49182;50.788;7.318;2023-05-06T06:19:10;100992.72;;;11.87;95.62
43125;BME280;49182;50.788;7.318;2023-05-06T06:21:36;100992.19;;;11.93;95.54
43125;BME280;49182;50.788;7.318;2023-05-06T06:24:04;100995.13;;;11.99;95.50
43125;BME280;49182;50.788;7.318;2023-05-06T06:26:30;101001.16;;;12.11;95.86
43125;BME280;49182;50.788;7.318;2023-05-06T06:28:58;100994.22;;;12.20;95.68
43125;BME280;49182;50.788;7.318;2023-05-06T06:31:26;100987.97;;;12.30;96.01
43125;BME280;49182;50.788;7.318;2023-05-06T06:33:52;100988.16;;;12.38;95.34
43125;BME280;49182;50.788;7.318;2023-05-06T06:36:19;100987.31;;;12.47;95.28
43125;BME280;49182;50.788;7.318;2023-05-06T06:38:46;100979.94;;;12.51;95.25
43125;BME280;49182;50.788;7.318;2023-05-06T06:41:12;100992.09;;;12.63;95.14
43125;BME280;49182;50.788;7.318;2023-05-06T06:43:39;100988.47;;;12.74;95.37
43125;BME280;49182;50.788;7.318;2023-05-06T06:46:15;100992.50;;;12.87;94.37
43125;BME280;49182;50.788;7.318;2023-05-06T06:48:43;100988.88;;;12.98;94.12
43125;BME280;49182;50.788;7.318;2023-05-06T06:51:09;100989.41;;;13.11;94.34
43125;BME280;49182;50.788;7.318;2023-05-06T06:53:36;100989.88;;;13.26;94.51
43125;BME280;49182;50.788;7.318;2023-05-06T06:56:02;100995.72;;;13.39;94.01
43125;BME280;49182;50.788;7.318;2023-05-06T06:58:31;100994.25;;;13.54;92.94
43125;BME280;49182;50.788;7.318;2023-05-06T07:00:58;100991.28;;;13.67;93.76
43125;BME280;49182;50.788;7.318;2023-05-06T07:03:25;101002.38;;;13.90;93.45
43125;BME280;49182;50.788;7.318;2023-05-06T07:05:52;101001.16;;;14.11;93.39
43125;BME280;49182;50.788;7.318;2023-05-06T07:08:19;100999.00;;;14.25;92.19
43125;BME280;49182;50.788;7.318;2023-05-06T07:10:46;100996.13;;;14.36;90.97
43125;BME280;49182;50.788;7.318;2023-05-06T07:13:13;100988.28;;;14.44;91.05
43125;BME280;49182;50.788;7.318;2023-05-06T07:15:39;100993.16;;;14.48;90.58
43125;BME280;49182;50.788;7.318;2023-05-06T07:18:06;100992.41;;;14.56;91.05
43125;BME280;49182;50.788;7.318;2023-05-06T07:20:32;101008.41;;;14.64;90.72
43125;BME280;49182;50.788;7.318;2023-05-06T07:23:00;101002.56;;;14.78;87.64
43125;BME280;49182;50.788;7.318;2023-05-06T07:25:27;100995.44;;;14.79;86.30
43125;BME280;49182;50.788;7.318;2023-05-06T07:27:54;100995.22;;;14.72;87.26
43125;BME280;49182;50.788;7.318;2023-05-06T07:30:20;101000.44;;;14.64;87.81
43125;BME280;49182;50.788;7.318;2023-05-06T07:32:49;100983.66;;;14.64;88.87
43125;BME280;49182;50.788;7.318;2023-05-06T07:35:15;100995.06;;;14.74;88.33
43125;BME280;49182;50.788;7.318;2023-05-06T07:37:44;101000.06;;;14.77;89.11
43125;BME280;49182;50.788;7.318;2023-05-06T07:40:12;100994.50;;;14.88;89.12
43125;BME280;49182;50.788;7.318;2023-05-06T07:42:39;100987.81;;;15.02;86.72
43125;BME280;49182;50.788;7.318;2023-05-06T07:45:09;100997.38;;;15.12;86.72
43125;BME280;49182;50.788;7.318;2023-05-06T07:47:36;100996.75;;;15.18;86.64
43125;BME280;49182;50.788;7.318;2023-05-06T07:50:03;100998.22;;;15.30;85.80
43125;BME280;49182;50.788;7.318;2023-05-06T07:52:30;100996.22;;;15.32;84.94
43125;BME280;49182;50.788;7.318;2023-05-06T07:54:56;100996.13;;;15.42;86.94
43125;BME280;49182;50.788;7.318;2023-05-06T07:57:24;100995.41;;;15.58;88.54
43125;BME280;49182;50.788;7.318;2023-05-06T07:59:51;101001.00;;;15.72;89.59
43125;BME280;49182;50.788;7.318;2023-05-06T08:02:18;100992.59;;;15.85;90.17
43125;BME280;49182;50.788;7.318;2023-05-06T08:04:44;100998.41;;;15.89;86.76
43125;BME280;49182;50.788;7.318;2023-05-06T08:07:11;100999.31;;;16.05;87.79
43125;BME280;49182;50.788;7.318;2023-05-06T08:09:38;101004.03;;;16.19;88.26
43125;BME280;49182;50.788;7.318;2023-05-06T08:12:04;101002.91;;;16.30;86.30
43125;BME280;49182;50.788;7.318;2023-05-06T08:14:32;100999.63;;;16.44;82.02
43125;BME280;49182;50.788;7.318;2023-05-06T08:16:59;100996.16;;;16.52;83.32
43125;BME280;49182;50.788;7.318;2023-05-06T08:19:25;100987.50;;;16.58;83.28
43125;BME280;49182;50.788;7.318;2023-05-06T08:21:52;100992.34;;;16.63;81.28
43125;BME280;49182;50.788;7.318;2023-05-06T08:24:19;100999.38;;;16.64;82.39
43125;BME280;49182;50.788;7.318;2023-05-06T08:26:45;100993.03;;;16.81;83.07
43125;BME280;49182;50.788;7.318;2023-05-06T08:29:12;100999.06;;;16.99;82.35
43125;BME280;49182;50.788;7.318;2023-05-06T08:31:40;100991.06;;;17.07;81.98
43125;BME280;49182;50.788;7.318;2023-05-06T08:34:07;100993.75;;;17.15;82.51
43125;BME280;49182;50.788;7.318;2023-05-06T08:36:33;100990.06;;;17.24;81.82
43125;BME280;49182;50.788;7.318;2023-05-06T08:39:00;101002.22;;;17.43;79.22
43125;BME280;49182;50.788;7.318;2023-05-06T08:41:28;100998.34;;;17.54;78.37
43125;BME280;49182;50.788;7.318;2023-05-06T08:43:56;100995.16;;;17.74;76.45
43125;BME280;49182;50.788;7.318;2023-05-06T08:46:23;100996.31;;;17.88;75.14
43125;BME280;49182;50.788;7.318;2023-05-06T08:48:52;100990.22;;;18.02;68.42
43125;BME280;49182;50.788;7.318;2023-05-06T08:51:20;100985.06;;;18.01;68.68
43125;BME280;49182;50.788;7.318;2023-05-06T08:53:52;100996.50;;;18.17;68.84
43125;BME280;49182;50.788;7.318;2023-05-06T08:56:22;100995.41;;;18.35;66.43
43125;BME280;49182;50.788;7.318;2023-05-06T08:58:50;100993.88;;;18.40;65.97
43125;BME280;49182;50.788;7.318;2023-05-06T09:01:17;100988.81;;;18.45;65.87
43125;BME280;49182;50.788;7.318;2023-05-06T09:03:44;100985.94;;;18.63;66.02
43125;BME280;49182;50.788;7.318;2023-05-06T09:06:13;100986.88;;;18.70;63.50
43125;BME280;49182;50.788;7.318;2023-05-06T09:08:40;100989.53;;;18.70;61.79
43125;BME280;49182;50.788;7.318;2023-05-06T09:11:18;100974.81;;;18.74;60.27
43125;BME280;49182;50.788;7.318;2023-05-06T09:13:46;100974.66;;;18.76;61.19
43125;BME280;49182;50.788;7.318;2023-05-06T09:16:25;100970.09;;;18.99;63.10
43125;BME280;49182;50.788;7.318;2023-05-06T09:18:52;100976.81;;;18.95;63.39
43125;BME280;49182;50.788;7.318;2023-05-06T09:21:20;100969.38;;;19.05;61.11
43125;BME280;49182;50.788;7.318;2023-05-06T09:23:47;100969.72;;;19.02;59.87
43125;BME280;49182;50.788;7.318;2023-05-06T09:26:14;100970.34;;;19.12;59.54
43125;BME280;49182;50.788;7.318;2023-05-06T09:28:44;100970.44;;;19.33;60.07
43125;BME280;49182;50.788;7.318;2023-05-06T09:31:13;100966.81;;;19.49;60.13
43125;BME280;49182;50.788;7.318;2023-05-06T09:33:40;100955.19;;;19.71;61.29
43125;BME280;49182;50.788;7.318;2023-05-06T09:36:06;100966.72;;;19.87;60.68
43125;BME280;49182;50.788;7.318;2023-05-06T09:38:34;100958.84;;;20.00;58.69
43125;BME280;49182;50.788;7.318;2023-05-06T09:41:02;100955.22;;;20.07;56.80
43125;BME280;49182;50.788;7.318;2023-05-06T09:43:29;100957.28;;;20.05;57.04
43125;BME280;49182;50.788;7.318;2023-05-06T09:45:55;100956.44;;;20.05;58.75
43125;BME280;49182;50.788;7.318;2023-05-06T09:48:22;100951.88;;;20.20;54.94
43125;BME280;49182;50.788;7.318;2023-05-06T09:50:49;100949.00;;;20.22;54.07
43125;BME280;49182;50.788;7.318;2023-05-06T09:53:16;100944.66;;;20.20;55.60
43125;BME280;49182;50.788;7.318;2023-05-06T09:55:45;100934.88;;;20.13;54.87
43125;BME280;49182;50.788;7.318;2023-05-06T09:58:13;100944.66;;;20.35;54.55
43125;BME280;49182;50.788;7.318;2023-05-06T10:00:40;100938.69;;;20.54;53.41
43125;BME280;49182;50.788;7.318;2023-05-06T10:03:07;100933.63;;;20.66;51.43
43125;BME280;49182;50.788;7.318;2023-05-06T10:05:35;100936.16;;;20.74;50.38
43125;BME280;49182;50.788;7.318;2023-05-06T10:08:02;100936.63;;;20.78;50.10
43125;BME280;49182;50.788;7.318;2023-05-06T10:10:29;100927.22;;;20.88;50.56
43125;BME280;49182;50.788;7.318;2023-05-06T10:12:57;100919.75;;;20.84;44.71
43125;BME280;49182;50.788;7.318;2023-05-06T10:15:24;100917.75;;;20.92;49.39
43125;BME280;49182;50.788;7.318;2023-05-06T10:17:51;100919.75;;;21.12;47.64
43125;BME280;49182;50.788;7.318;2023-05-06T10:20:20;100914.09;;;21.21;46.47
43125;BME280;49182;50.788;7.318;2023-05-06T10:22:54;100916.03;;;21.34;42.60
43125;BME280;49182;50.788;7.318;2023-05-06T10:25:29;100915.38;;;21.32;43.66
43125;BME280;49182;50.788;7.318;2023-05-06T10:28:00;100907.00;;;21.48;46.22
43125;BME280;49182;50.788;7.318;2023-05-06T10:30:32;100902.56;;;21.68;46.70
43125;BME280;49182;50.788;7.318;2023-05-06T10:33:03;100901.63;;;21.89;47.49
43125;BME280;49182;50.788;7.318;2023-05-06T10:35:37;100896.56;;;22.07;48.01
43125;BME280;49182;50.788;7.318;2023-05-06T10:38:09;100902.16;;;22.19;45.73
43125;BME280;49182;50.788;7.318;2023-05-06T10:40:37;100893.72;;;22.35;46.53
43125;BME280;49182;50.788;7.318;2023-05-06T10:43:22;100896.63;;;22.53;46.65
43125;BME280;49182;50.788;7.318;2023-05-06T10:45:59;100892.72;;;22.69;45.55
43125;BME280;49182;50.788;7.318;2023-05-06T10:48:27;100890.91;;;22.76;46.88
43125;BME280;49182;50.788;7.318;2023-05-06T10:51:24;100882.78;;;22.96;45.22
43125;BME280;49182;50.788;7.318;2023-05-06T10:53:58;100884.47;;;22.90;43.86
43125;BME280;49182;50.788;7.318;2023-05-06T10:56:25;100880.97;;;22.77;45.24
43125;BME280;49182;50.788;7.318;2023-05-06T10:58:55;100880.75;;;22.85;43.79
43125;BME280;49182;50.788;7.318;2023-05-06T11:01:25;100882.59;;;22.91;45.22
43125;BME280;49182;50.788;7.318;2023-05-06T11:03:52;100880.34;;;22.94;44.01
43125;BME280;49182;50.788;7.318;2023-05-06T11:06:38;100883.41;;;23.05;43.83
43125;BME280;49182;50.788;7.318;2023-05-06T11:09:05;100884.25;;;23.18;45.07
43125;BME280;49182;50.788;7.318;2023-05-06T11:11:50;100885.66;;;23.34;44.63
43125;BME280;49182;50.788;7.318;2023-05-06T11:14:29;100871.53;;;23.45;44.53
43125;BME280;49182;50.788;7.318;2023-05-06T11:16:57;100873.41;;;23.51;43.67
43125;BME280;49182;50.788;7.318;2023-05-06T11:19:25;100874.81;;;23.60;42.38
43125;BME280;49182;50.788;7.318;2023-05-06T11:21:52;100870.47;;;23.59;42.90
43125;BME280;49182;50.788;7.318;2023-05-06T11:24:22;100861.31;;;23.67;42.39
43125;BME280;49182;50.788;7.318;2023-05-06T11:26:50;100843.66;;;23.71;41.59
43125;BME280;49182;50.788;7.318;2023-05-06T11:29:17;100853.19;;;23.80;42.07
43125;BME280;49182;50.788;7.318;2023-05-06T11:31:45;100863.28;;;23.91;42.53
43125;BME280;49182;50.788;7.318;2023-05-06T11:34:17;100850.00;;;23.90;42.06
43125;BME280;49182;50.788;7.318;2023-05-06T11:36:48;100858.03;;;24.03;42.19
43125;BME280;49182;50.788;7.318;2023-05-06T11:39:14;100850.69;;;24.23;43.07
43125;BME280;49182;50.788;7.318;2023-05-06T11:41:41;100854.50;;;24.40;40.93
43125;BME280;49182;50.788;7.318;2023-05-06T11:44:08;100849.41;;;24.50;40.80
43125;BME280;49182;50.788;7.318;2023-05-06T11:46:37;100853.34;;;24.54;39.29
43125;BME280;49182;50.788;7.318;2023-05-06T11:49:05;100850.44;;;24.56;40.16
43125;BME280;49182;50.788;7.318;2023-05-06T11:51:31;100847.22;;;24.66;41.01
43125;BME280;49182;50.788;7.318;2023-05-06T11:54:08;100839.63;;;24.81;40.13
43125;BME280;49182;50.788;7.318;2023-05-06T11:56:45;100843.03;;;24.94;38.43
43125;BME280;49182;50.788;7.318;2023-05-06T11:59:12;100843.28;;;24.93;39.05
43125;BME280;49182;50.788;7.318;2023-05-06T12:01:42;100839.03;;;24.79;38.56
43125;BME280;49182;50.788;7.318;2023-05-06T12:04:11;100832.69;;;24.67;37.04
43125;BME280;49182;50.788;7.318;2023-05-06T12:06:38;100836.31;;;24.54;39.46
43125;BME280;49182;50.788;7.318;2023-05-06T12:09:07;100836.69;;;24.57;39.40
43125;BME280;49182;50.788;7.318;2023-05-06T12:11:35;100836.59;;;24.71;39.76
43125;BME280;49182;50.788;7.318;2023-05-06T12:14:04;100838.75;;;24.87;39.67
43125;BME280;49182;50.788;7.318;2023-05-06T12:16:31;100845.31;;;24.97;38.75
43125;BME280;49182;50.788;7.318;2023-05-06T12:18:58;100833.34;;;25.12;37.51
43125;BME280;49182;50.788;7.318;2023-05-06T12:21:27;100833.00;;;25.02;37.26
43125;BME280;49182;50.788;7.318;2023-05-06T12:23:57;100811.81;;;24.55;36.37
43125;BME280;49182;50.788;7.318;2023-05-06T12:26:24;100836.44;;;24.41;38.76
43125;BME280;49182;50.788;7.318;2023-05-06T12:29:05;100834.19;;;24.38;40.80
43125;BME280;49182;50.788;7.318;2023-05-06T12:31:31;100820.94;;;24.30;37.92
43125;BME280;49182;50.788;7.318;2023-05-06T12:33:58;100829.00;;;24.61;38.93
43125;BME280;49182;50.788;7.318;2023-05-06T12:36:28;100819.97;;;24.74;37.39
43125;BME280;49182;50.788;7.318;2023-05-06T12:38:56;100828.50;;;24.95;38.15
43125;BME280;49182;50.788;7.318;2023-05-06T12:41:24;100829.81;;;25.11;38.67
43125;BME280;49182;50.788;7.318;2023-05-06T12:43:59;100830.31;;;25.20;38.74
43125;BME280;49182;50.788;7.318;2023-05-06T12:46:26;100831.91;;;25.27;38.21
43125;BME280;49182;50.788;7.318;2023-05-06T12:48:57;100828.28;;;25.33;36.34
43125;BME280;49182;50.788;7.318;2023-05-06T12:51:23;100824.53;;;25.53;35.73